Time;durP1;ratioP1;P1;durP2;ratioP2;P2;SDS_P1;SDS_P2;PMS_P1;PMS_P2;Temp;Humidity;BMP_temperature;BMP_pressure;BME280_temperature;BME280_humidity;BME280_pressure;Samples;Min_cycle;Max_cycle;Signal;HPM_P1;HPM_P2
2022/01/31 00:01:29;;;;;;;;;;;3.80;99.90;;;;;;6171000;23;19929;-89
2022/01/31 00:03:54;;;;;;;;;;;3.80;99.90;;;;;;6188864;23;19912;-92
2022/01/31 00:06:26;;;;;;;;;;;3.90;99.90;;;;;;6176083;23;20700;-91
2022/01/31 00:12:30;;;;;;;;;;;3.90;99.90;;;;;;6166978;23;19920;-88
2022/01/31 00:18:10;;;;;;;;;;;3.90;99.90;;;;;;6146395;23;19920;-90
2022/01/31 00:20:46;;;;;;;;;;;;;;;;;;;;;
2022/01/31 00:23:22;;;;;;;;;;;3.90;99.90;;;;;;6177421;23;19920;-90
2022/01/31 00:25:50;;;;;;;;;;;3.90;99.90;;;;;;6151976;23;19923;-88
2022/01/31 00:28:19;;;;;;;;;;;3.90;99.90;;;;;;6133345;23;19916;-88
2022/01/31 00:30:48;;;;;;;;;;;3.90;99.90;;;;;;6156118;23;19915;-86
2022/01/31 00:33:14;;;;;;;;;;;3.90;99.90;;;;;;6153541;23;19923;-91
2022/01/31 00:35:52;;;;;;;;;;;3.90;99.90;;;;;;6158980;23;19998;-87
2022/01/31 00:38:17;;;;;;;;;;;3.90;99.90;;;;;;6155433;23;19916;-87
2022/01/31 00:40:43;;;;;;;;;;;3.90;99.90;;;;;;6149182;23;19985;-87
2022/01/31 00:43:16;;;;;;;;;;;3.90;99.90;;;;;;6156448;23;19931;-86
2022/01/31 00:46:11;;;;;;;;;;;3.90;99.90;;;;;;6157778;23;19915;-87
2022/01/31 00:48:50;;;;;;;;;;;3.90;99.90;;;;;;6179051;23;19924;-85
2022/01/31 00:51:18;;;;;;;;;;;3.90;99.90;;;;;;6176751;23;19920;-86
2022/01/31 00:53:49;;;;;;;;;;;3.90;99.90;;;;;;6180157;23;19935;-91
2022/01/31 00:56:14;;;;;;;;;;;3.90;99.90;;;;;;6181681;23;19927;-87
2022/01/31 00:58:40;;;;;;;;;;;3.90;99.90;;;;;;6183561;23;19919;-88
2022/01/31 01:01:06;;;;;;;;;;;3.90;99.90;;;;;;6179501;23;19922;-89
2022/01/31 01:03:34;;;;;;;;;;;3.90;99.90;;;;;;6182665;23;19922;-90
2022/01/31 01:05:59;;;;;;;;;;;3.90;99.90;;;;;;6180799;23;19934;-88
2022/01/31 01:08:25;;;;;;;;;;;4.00;99.90;;;;;;6156418;23;20000;-89
2022/01/31 01:11:02;;;;;;;;;;;3.90;99.90;;;;;;6183317;23;19919;-89
2022/01/31 01:13:28;;;;;;;;;;;3.90;99.90;;;;;;6158041;23;19915;-89
2022/01/31 01:15:54;;;;;;;;;;;4.00;99.90;;;;;;6159744;23;19986;-87
2022/01/31 01:18:46;;;;;;;;;;;3.90;99.90;;;;;;6180648;23;19923;-88
2022/01/31 01:21:11;;;;;;;;;;;4.00;99.90;;;;;;6181615;23;19915;-85
2022/01/31 01:23:42;;;;;;;;;;;4.00;99.90;;;;;;6184530;23;19923;-89
2022/01/31 01:26:36;;;;;;;;;;;4.00;99.90;;;;;;6158369;23;19924;-89
2022/01/31 01:29:25;;;;;;;;;;;3.90;99.90;;;;;;6185019;23;19998;-89
2022/01/31 01:32:06;;;;;;;;;;;3.90;99.90;;;;;;6183346;23;20360;-85
2022/01/31 01:34:35;;;;;;;;;;;3.90;99.90;;;;;;6161495;23;20009;-87
2022/01/31 01:37:03;;;;;;;;;;;3.80;99.90;;;;;;6184132;23;19919;-90
2022/01/31 01:39:31;;;;;;;;;;;3.80;99.90;;;;;;6186640;23;20265;-88
2022/01/31 01:44:48;;;;;;;;;;;3.70;99.90;;;;;;6186002;23;19926;-90
2022/01/31 01:47:55;;;;;;;;;;;3.70;99.90;;;;;;6176844;23;19920;-89
2022/01/31 01:57:02;;;;;;;;;;;3.40;99.90;;;;;;6087790;23;19920;-87
2022/01/31 02:00:08;;;;;;;;;;;3.20;99.90;;;;;;6082256;23;19924;-88
2022/01/31 04:29:21;;;;;;;;;;;4.30;99.90;;;;;;6254744;22;19923;-88
2022/01/31 04:31:51;;;;;;;;;;;4.50;99.90;;;;;;6212009;22;19926;-88
2022/01/31 04:34:49;;;;;;;;;;;4.60;99.90;;;;;;6210519;22;19919;-88
2022/01/31 04:37:30;;;;;;;;;;;4.60;99.90;;;;;;6181896;23;19962;-89
2022/01/31 04:39:59;;;;;;;;;;;4.70;99.90;;;;;;6180711;23;19919;-84
2022/01/31 04:42:35;;;;;;;;;;;;;;;;;;;;;
2022/01/31 04:45:16;;;;;;;;;;;4.60;99.90;;;;;;6183637;23;20621;-85
2022/01/31 04:47:45;;;;;;;;;;;4.60;99.90;;;;;;6198633;23;19923;-85
2022/01/31 04:50:31;;;;;;;;;;;4.60;99.90;;;;;;6174744;23;19990;-85
2022/01/31 04:53:02;;;;;;;;;;;4.50;99.90;;;;;;6158687;23;20652;-88
2022/01/31 04:55:30;;;;;;;;;;;4.50;99.90;;;;;;6176272;23;20344;-85
2022/01/31 04:57:57;;;;;;;;;;;4.40;99.90;;;;;;6148630;23;20011;-89
2022/01/31 05:00:25;;;;;;;;;;;4.40;99.90;;;;;;6201246;23;20622;-84
2022/01/31 05:02:50;;;;;;;;;;;4.50;99.90;;;;;;6147757;23;19958;-86
2022/01/31 05:05:16;;;;;;;;;;;4.40;99.90;;;;;;6175173;23;19919;-85
2022/01/31 05:07:42;;;;;;;;;;;4.40;99.90;;;;;;6176885;23;20011;-85
2022/01/31 05:10:12;;;;;;;;;;;4.40;99.90;;;;;;6147496;23;20141;-86
2022/01/31 05:12:38;;;;;;;;;;;4.30;99.90;;;;;;6175702;23;19923;-87
2022/01/31 05:15:07;;;;;;;;;;;4.30;99.90;;;;;;6151144;23;19927;-84
2022/01/31 05:17:43;;;;;;;;;;;4.40;99.90;;;;;;6174464;23;19927;-87
2022/01/31 05:20:18;;;;;;;;;;;4.40;99.90;;;;;;6178907;23;19920;-86
2022/01/31 05:22:57;;;;;;;;;;;4.40;99.90;;;;;;6228467;23;20563;-86
2022/01/31 05:25:30;;;;;;;;;;;4.40;99.90;;;;;;6183737;23;19938;-85
2022/01/31 05:27:55;;;;;;;;;;;4.40;99.90;;;;;;6193051;23;19924;-86
2022/01/31 05:30:22;;;;;;;;;;;4.40;99.90;;;;;;6154204;23;20003;-85
2022/01/31 05:32:51;;;;;;;;;;;4.40;99.90;;;;;;6172980;23;20329;-84
2022/01/31 05:35:22;;;;;;;;;;;4.50;99.90;;;;;;6174095;23;20222;-86
2022/01/31 05:37:48;;;;;;;;;;;4.50;99.90;;;;;;6202815;23;20300;-89
2022/01/31 05:40:14;;;;;;;;;;;4.60;99.90;;;;;;6151318;23;19927;-86
2022/01/31 05:42:42;;;;;;;;;;;4.50;99.90;;;;;;6173735;23;19920;-87
2022/01/31 05:45:20;;;;;;;;;;;;;;;;;;;;;
2022/01/31 05:47:46;;;;;;;;;;;4.50;99.90;;;;;;6197526;23;19923;-86
2022/01/31 05:50:19;;;;;;;;;;;4.50;99.90;;;;;;6175576;23;19915;-86
2022/01/31 05:52:50;;;;;;;;;;;4.40;99.90;;;;;;6175729;23;20489;-87
2022/01/31 05:55:40;;;;;;;;;;;4.40;99.90;;;;;;6174920;23;19926;-87
2022/01/31 05:58:08;;;;;;;;;;;4.50;99.90;;;;;;6159018;23;19915;-85
2022/01/31 06:00:35;;;;;;;;;;;4.40;99.90;;;;;;6178598;23;19926;-85
2022/01/31 06:03:01;;;;;;;;;;;4.30;99.90;;;;;;6170430;23;19969;-86
2022/01/31 06:05:32;;;;;;;;;;;4.30;99.90;;;;;;6174076;23;19923;-84
2022/01/31 06:07:58;;;;;;;;;;;4.30;99.90;;;;;;6171608;23;19923;-85
2022/01/31 06:10:33;;;;;;;;;;;4.20;99.90;;;;;;6173141;23;20253;-86
2022/01/31 06:13:06;;;;;;;;;;;4.20;99.90;;;;;;6198730;23;20257;-87
2022/01/31 06:15:34;;;;;;;;;;;4.20;99.90;;;;;;6171921;23;19920;-87
2022/01/31 06:18:03;;;;;;;;;;;4.20;99.90;;;;;;6173229;23;19915;-86
2022/01/31 06:20:28;;;;;;;;;;;4.10;99.90;;;;;;6172222;23;20159;-85
2022/01/31 06:22:55;;;;;;;;;;;4.20;99.90;;;;;;6146403;23;19915;-86
2022/01/31 06:25:39;;;;;;;;;;;4.10;99.90;;;;;;6143822;23;19917;-86
2022/01/31 06:28:33;;;;;;;;;;;;;;;;;;;;;
2022/01/31 06:31:08;;;;;;;;;;;4.10;99.90;;;;;;6195543;23;19920;-86
2022/01/31 06:33:34;;;;;;;;;;;4.20;99.90;;;;;;6173233;23;19915;-89
2022/01/31 06:36:08;;;;;;;;;;;4.20;99.90;;;;;;6165496;23;20131;-88
2022/01/31 06:38:35;;;;;;;;;;;4.20;99.90;;;;;;6167359;23;20411;-86
2022/01/31 06:41:04;;;;;;;;;;;4.20;99.90;;;;;;6166556;23;20232;-86
2022/01/31 06:43:35;;;;;;;;;;;4.20;99.90;;;;;;6143223;23;19915;-85
2022/01/31 06:46:01;;;;;;;;;;;4.20;99.90;;;;;;6170628;23;20307;-84
2022/01/31 06:48:37;;;;;;;;;;;4.20;99.90;;;;;;6140979;23;19927;-85
2022/01/31 06:51:05;;;;;;;;;;;4.20;99.90;;;;;;6193300;23;20398;-85
2022/01/31 06:53:49;;;;;;;;;;;4.30;99.90;;;;;;6169230;23;19916;-86
2022/01/31 06:56:40;;;;;;;;;;;4.20;99.90;;;;;;6139869;23;20207;-86
2022/01/31 06:59:06;;;;;;;;;;;4.30;99.90;;;;;;6168714;23;19920;-85
2022/01/31 07:01:34;;;;;;;;;;;4.30;99.90;;;;;;6141484;23;19990;-85
2022/01/31 07:04:02;;;;;;;;;;;4.30;99.90;;;;;;6166557;23;19919;-85
2022/01/31 07:06:37;;;;;;;;;;;4.40;99.90;;;;;;6164964;23;19930;-86
2022/01/31 07:09:13;;;;;;;;;;;4.40;99.90;;;;;;6169055;23;19951;-86
2022/01/31 07:11:42;;;;;;;;;;;4.50;99.90;;;;;;6164754;23;20006;-85
2022/01/31 07:14:32;;;;;;;;;;;4.50;99.90;;;;;;6172661;23;19924;-85
2022/01/31 07:16:58;;;;;;;;;;;4.50;99.90;;;;;;6166423;23;19926;-85
2022/01/31 07:19:27;;;;;;;;;;;4.50;99.90;;;;;;6163944;23;19919;-84
2022/01/31 07:21:53;;;;;;;;;;;4.50;99.90;;;;;;6167927;23;20292;-85
2022/01/31 07:24:29;;;;;;;;;;;4.60;99.90;;;;;;6173176;23;20279;-86
2022/01/31 07:26:58;;;;;;;;;;;4.60;99.90;;;;;;6172516;23;20215;-86
2022/01/31 07:29:29;;;;;;;;;;;4.60;99.90;;;;;;6165537;23;20355;-85
2022/01/31 07:31:56;;;;;;;;;;;4.60;99.90;;;;;;6169730;23;19958;-86
2022/01/31 07:34:24;;;;;;;;;;;4.60;99.90;;;;;;6145896;23;19919;-83
2022/01/31 07:37:05;;;;;;;;;;;4.70;99.90;;;;;;6170806;23;20260;-84
2022/01/31 07:39:34;;;;;;;;;;;4.60;99.90;;;;;;6164785;23;19920;-87
2022/01/31 07:42:00;;;;;;;;;;;4.70;99.90;;;;;;6167069;23;19920;-85
2022/01/31 07:44:36;;;;;;;;;;;4.60;99.90;;;;;;6164477;23;20230;-85
2022/01/31 07:47:07;;;;;;;;;;;4.60;99.90;;;;;;6147221;23;19970;-85
2022/01/31 07:49:45;;;;;;;;;;;4.60;99.90;;;;;;6165813;23;20325;-86
2022/01/31 07:52:14;;;;;;;;;;;4.60;99.90;;;;;;6140094;23;20410;-85
2022/01/31 07:55:06;;;;;;;;;;;4.60;99.90;;;;;;6146094;23;19966;-84
2022/01/31 07:57:42;;;;;;;;;;;4.60;99.90;;;;;;6128009;23;19920;-85
2022/01/31 08:00:15;;;;;;;;;;;4.60;99.90;;;;;;6138145;23;20474;-86
2022/01/31 08:02:55;;;;;;;;;;;;;;;;;;;;;
2022/01/31 08:09:17;;;;;;;;;;;4.70;99.90;;;;;;6097282;23;20180;-84
2022/01/31 08:12:13;;;;;;;;;;;4.70;99.90;;;;;;6079866;23;19927;-86
2022/01/31 08:19:05;;;;;;;;;;;4.70;99.90;;;;;;6011513;23;20346;-86
2022/01/31 09:13:57;;;;;;;;;;;;;;;;;;;;;
2022/01/31 09:22:51;;;;;;;;;;;5.40;99.90;;;;;;6227295;22;19920;-88
2022/01/31 09:25:44;;;;;;;;;;;5.50;99.90;;;;;;6197372;22;20330;-85
2022/01/31 09:28:14;;;;;;;;;;;5.40;99.90;;;;;;6202348;22;20005;-86
2022/01/31 09:33:16;;;;;;;;;;;5.40;99.90;;;;;;6222258;23;20327;-86
2022/01/31 09:35:42;;;;;;;;;;;5.40;99.90;;;;;;6167938;23;20308;-84
2022/01/31 09:38:08;;;;;;;;;;;5.50;99.90;;;;;;6139668;23;19927;-85
2022/01/31 09:40:35;;;;;;;;;;;5.50;99.90;;;;;;6170710;23;20079;-85
2022/01/31 09:45:50;;;;;;;;;;;5.70;99.90;;;;;;6190383;23;19919;-85
2022/01/31 09:51:07;;;;;;;;;;;5.60;99.90;;;;;;6192130;23;19932;-83
2022/01/31 09:53:37;;;;;;;;;;;5.70;99.90;;;;;;6195900;23;19920;-86
2022/01/31 09:56:04;;;;;;;;;;;5.70;99.90;;;;;;6168497;23;20019;-87
2022/01/31 09:58:29;;;;;;;;;;;5.80;99.90;;;;;;6139877;23;19919;-84
2022/01/31 10:01:06;;;;;;;;;;;5.90;99.90;;;;;;6139631;23;19919;-84
2022/01/31 10:03:33;;;;;;;;;;;5.90;99.90;;;;;;6188423;23;20412;-87
2022/01/31 10:05:59;;;;;;;;;;;5.90;99.90;;;;;;6172426;23;19927;-84
2022/01/31 10:08:28;;;;;;;;;;;5.90;99.90;;;;;;6139776;23;19920;-88
2022/01/31 10:11:00;;;;;;;;;;;6.00;99.90;;;;;;6175136;23;19919;-84
2022/01/31 10:16:32;;;;;;;;;;;5.90;99.90;;;;;;6186980;23;20281;-84
2022/01/31 10:19:08;;;;;;;;;;;5.90;99.90;;;;;;6149363;23;19938;-88
2022/01/31 10:21:53;;;;;;;;;;;5.90;99.90;;;;;;6179627;23;20611;-86
2022/01/31 10:24:18;;;;;;;;;;;5.80;99.90;;;;;;6165921;23;19926;-86
2022/01/31 10:26:44;;;;;;;;;;;5.80;99.90;;;;;;6192643;23;20263;-84
2022/01/31 10:29:10;;;;;;;;;;;5.80;99.90;;;;;;6171617;23;19919;-85
2022/01/31 10:31:36;;;;;;;;;;;5.80;99.90;;;;;;6181965;23;19974;-85
2022/01/31 10:34:12;;;;;;;;;;;5.90;99.90;;;;;;6169328;23;19924;-84
2022/01/31 10:36:38;;;;;;;;;;;6.00;99.90;;;;;;6169646;23;20348;-85
2022/01/31 10:39:13;;;;;;;;;;;6.00;99.90;;;;;;6143197;23;20027;-85
2022/01/31 10:53:08;;;;;;;;;;;6.40;99.90;;;;;;6189424;23;20017;-85
2022/01/31 10:55:34;;;;;;;;;;;6.40;99.90;;;;;;6171263;23;20005;-89
2022/01/31 10:58:19;;;;;;;;;;;6.40;99.90;;;;;;6161984;23;20026;-84
2022/01/31 11:00:44;;;;;;;;;;;6.40;99.90;;;;;;6159735;23;20028;-88
2022/01/31 11:03:28;;;;;;;;;;;6.40;99.90;;;;;;6165020;23;19962;-85
2022/01/31 11:05:54;;;;;;;;;;;6.40;99.90;;;;;;6164090;23;19926;-86
2022/01/31 11:08:20;;;;;;;;;;;6.40;99.90;;;;;;6163029;23;19924;-82
2022/01/31 11:10:46;;;;;;;;;;;6.40;99.90;;;;;;6138137;23;19919;-82
2022/01/31 11:13:12;;;;;;;;;;;6.50;99.90;;;;;;6162994;23;19978;-87
2022/01/31 11:15:38;;;;;;;;;;;6.50;99.90;;;;;;6194119;23;19920;-85
2022/01/31 11:18:06;;;;;;;;;;;6.60;99.90;;;;;;6139982;23;20270;-84
2022/01/31 11:20:33;;;;;;;;;;;6.50;99.90;;;;;;6144566;23;19994;-87
2022/01/31 11:22:59;;;;;;;;;;;6.60;99.90;;;;;;6168593;23;19920;-87
2022/01/31 11:25:27;;;;;;;;;;;6.60;99.90;;;;;;6145869;23;20415;-87
2022/01/31 11:28:02;;;;;;;;;;;6.50;99.90;;;;;;6166570;23;19924;-85
2022/01/31 11:30:28;;;;;;;;;;;6.60;99.90;;;;;;6145870;23;19923;-87
2022/01/31 11:32:54;;;;;;;;;;;6.60;99.90;;;;;;6147391;23;20333;-85
2022/01/31 11:35:21;;;;;;;;;;;6.60;99.90;;;;;;6168259;23;19990;-86
2022/01/31 11:37:47;;;;;;;;;;;6.60;99.90;;;;;;6173480;23;20604;-83
2022/01/31 11:40:14;;;;;;;;;;;6.70;99.90;;;;;;6161044;23;20203;-84
2022/01/31 11:42:44;;;;;;;;;;;6.80;99.90;;;;;;6166899;23;19920;-88
2022/01/31 11:48:04;;;;;;;;;;;6.90;99.90;;;;;;6194898;23;20009;-88
2022/01/31 11:50:31;;;;;;;;;;;6.90;99.90;;;;;;6171994;23;20333;-86
2022/01/31 11:52:59;;;;;;;;;;;7.00;99.90;;;;;;6173609;23;20262;-88
2022/01/31 11:55:42;;;;;;;;;;;7.00;99.90;;;;;;6176225;23;19919;-88
2022/01/31 11:58:15;;;;;;;;;;;7.00;99.90;;;;;;6176985;23;19927;-90
2022/01/31 12:00:45;;;;;;;;;;;7.10;99.90;;;;;;6154930;23;19924;-90
2022/01/31 12:03:15;;;;;;;;;;;7.00;99.90;;;;;;6175004;23;19978;-86
2022/01/31 12:05:43;;;;;;;;;;;7.00;99.90;;;;;;6167257;23;19950;-85
2022/01/31 12:08:12;;;;;;;;;;;7.10;99.90;;;;;;6173490;23;19924;-89
2022/01/31 12:11:14;;;;;;;;;;;7.20;99.90;;;;;;6173323;23;19920;-87
2022/01/31 12:13:45;;;;;;;;;;;7.30;99.90;;;;;;6165716;23;19916;-85
2022/01/31 12:16:47;;;;;;;;;;;7.50;99.90;;;;;;6198781;23;20269;-89
2022/01/31 12:22:00;;;;;;;;;;;7.60;99.90;;;;;;6197649;23;19930;-89
2022/01/31 12:24:40;;;;;;;;;;;7.70;99.90;;;;;;6174960;23;19928;-85
2022/01/31 12:30:41;;;;;;;;;;;7.60;99.90;;;;;;6131085;23;19923;-90
2022/01/31 12:43:13;;;;;;;;;;;7.50;99.90;;;;;;6076336;23;19920;-90
2022/01/31 12:46:18;;;;;;;;;;;7.50;99.90;;;;;;6059523;23;19969;-87
2022/01/31 12:52:14;;;;;;;;;;;7.50;99.90;;;;;;6018604;23;20001;-84
2022/01/31 12:54:41;;;;;;;;;;;7.60;99.90;;;;;;6004300;23;20363;-86
2022/01/31 12:57:11;;;;;;;;;;;7.70;99.90;;;;;;5997178;23;19921;-83
2022/01/31 12:59:40;;;;;;;;;;;7.70;99.90;;;;;;5997572;23;19921;-88
2022/01/31 13:02:08;;;;;;;;;;;7.70;99.90;;;;;;6034142;23;19928;-84
2022/01/31 13:04:34;;;;;;;;;;;7.60;99.90;;;;;;6150232;23;20269;-85
2022/01/31 13:07:01;;;;;;;;;;;7.50;99.90;;;;;;6145905;23;19920;-82
2022/01/31 13:09:39;;;;;;;;;;;7.50;99.90;;;;;;6137734;23;19934;-88
2022/01/31 13:12:06;;;;;;;;;;;7.40;99.90;;;;;;6137091;23;19920;-84
2022/01/31 13:14:33;;;;;;;;;;;7.30;99.90;;;;;;6145332;23;20529;-83
2022/01/31 13:17:08;;;;;;;;;;;7.30;99.90;;;;;;6139386;23;20340;-85
2022/01/31 13:19:43;;;;;;;;;;;7.40;99.90;;;;;;6144951;23;19932;-87
2022/01/31 13:22:13;;;;;;;;;;;7.50;99.90;;;;;;6095206;23;19920;-87
2022/01/31 13:24:48;;;;;;;;;;;7.50;99.90;;;;;;6137950;23;19983;-88
2022/01/31 13:27:26;;;;;;;;;;;7.50;99.90;;;;;;6141674;23;19969;-87
2022/01/31 13:30:06;;;;;;;;;;;7.50;99.90;;;;;;6143824;23;19928;-87
2022/01/31 13:32:47;;;;;;;;;;;;;;;;;;;;;
2022/01/31 13:35:34;;;;;;;;;;;7.50;99.90;;;;;;6166561;23;20732;-86
2022/01/31 13:38:10;;;;;;;;;;;7.60;99.90;;;;;;6138578;23;19959;-84
2022/01/31 13:40:58;;;;;;;;;;;7.60;99.90;;;;;;6140741;23;20341;-87
2022/01/31 13:43:47;;;;;;;;;;;7.60;99.90;;;;;;6144479;23;19920;-87
2022/01/31 13:46:21;;;;;;;;;;;7.60;99.90;;;;;;6132085;23;19924;-83
2022/01/31 13:51:48;;;;;;;;;;;7.40;99.90;;;;;;6081752;23;19924;-87
2022/01/31 13:54:18;;;;;;;;;;;7.40;99.90;;;;;;6099665;23;20388;-85
2022/01/31 13:56:58;;;;;;;;;;;7.20;99.90;;;;;;6148389;23;19920;-84
2022/01/31 13:59:25;;;;;;;;;;;7.20;99.90;;;;;;6149571;23;19931;-84
2022/01/31 14:02:05;;;;;;;;;;;7.20;99.90;;;;;;6125883;23;19968;-86
2022/01/31 14:04:34;;;;;;;;;;;7.20;99.90;;;;;;6148345;23;19947;-88
2022/01/31 14:07:11;;;;;;;;;;;7.20;99.90;;;;;;6123891;23;20014;-87
2022/01/31 14:09:56;;;;;;;;;;;7.30;99.90;;;;;;6152182;23;19927;-85
2022/01/31 14:12:32;;;;;;;;;;;7.40;99.90;;;;;;6103869;23;20456;-84
2022/01/31 14:15:05;;;;;;;;;;;7.50;99.90;;;;;;6150015;23;20377;-86
2022/01/31 14:17:30;;;;;;;;;;;7.60;99.90;;;;;;6149874;23;19924;-83
2022/01/31 14:20:05;;;;;;;;;;;7.60;99.90;;;;;;6100129;23;19924;-90
2022/01/31 14:23:04;;;;;;;;;;;;;;;;;;;;;
2022/01/31 14:26:01;;;;;;;;;;;7.50;99.90;;;;;;6146635;23;19920;-88
2022/01/31 14:28:50;;;;;;;;;;;7.40;99.90;;;;;;6154528;23;19931;-85
2022/01/31 14:31:32;;;;;;;;;;;7.40;99.90;;;;;;6147611;23;19964;-89
2022/01/31 14:34:46;;;;;;;;;;;7.40;99.90;;;;;;6150024;23;20023;-88
2022/01/31 14:37:46;;;;;;;;;;;7.30;99.90;;;;;;6030917;23;19918;-89
2022/01/31 14:49:19;;;;;;;;;;;7.20;99.90;;;;;;6148327;23;19956;-85
2022/01/31 14:52:16;;;;;;;;;;;7.20;99.90;;;;;;6117753;23;19960;-85
2022/01/31 14:54:43;;;;;;;;;;;7.10;99.90;;;;;;6133177;23;19991;-87
2022/01/31 14:57:11;;;;;;;;;;;7.10;99.90;;;;;;6119103;23;19920;-86
2022/01/31 14:59:37;;;;;;;;;;;7.00;99.90;;;;;;6119721;23;19967;-86
2022/01/31 15:02:06;;;;;;;;;;;7.00;99.90;;;;;;6118764;23;19920;-89
2022/01/31 15:04:32;;;;;;;;;;;6.90;99.90;;;;;;6144535;23;19920;-87
2022/01/31 15:07:01;;;;;;;;;;;6.90;99.90;;;;;;6118187;23;19917;-88
2022/01/31 15:09:29;;;;;;;;;;;6.90;99.90;;;;;;6120164;23;20004;-86
2022/01/31 15:11:55;;;;;;;;;;;6.80;99.90;;;;;;6120206;23;19995;-87
2022/01/31 15:14:22;;;;;;;;;;;6.80;99.90;;;;;;6144688;23;20002;-85
2022/01/31 15:16:48;;;;;;;;;;;6.80;99.90;;;;;;6118969;23;19920;-86
2022/01/31 15:19:15;;;;;;;;;;;6.80;99.90;;;;;;6123618;23;20099;-86
2022/01/31 15:21:41;;;;;;;;;;;6.70;99.90;;;;;;6150914;23;19920;-86
2022/01/31 15:24:08;;;;;;;;;;;6.80;99.90;;;;;;6125250;23;19944;-84
2022/01/31 15:26:35;;;;;;;;;;;6.70;99.90;;;;;;6125200;23;20129;-87
2022/01/31 15:29:04;;;;;;;;;;;6.70;99.90;;;;;;6092747;23;20061;-87
2022/01/31 15:31:29;;;;;;;;;;;6.70;99.90;;;;;;6090168;23;19963;-86
2022/01/31 15:33:55;;;;;;;;;;;6.60;99.90;;;;;;6114195;23;20378;-85
2022/01/31 15:36:21;;;;;;;;;;;6.60;99.90;;;;;;6112598;23;19924;-86
2022/01/31 15:38:47;;;;;;;;;;;6.50;99.90;;;;;;6115137;23;19955;-84
2022/01/31 15:41:14;;;;;;;;;;;6.40;99.90;;;;;;6119998;23;19916;-87
2022/01/31 15:43:41;;;;;;;;;;;6.40;99.90;;;;;;6118204;23;19927;-87
2022/01/31 15:46:07;;;;;;;;;;;6.40;99.90;;;;;;6095918;23;20409;-86
2022/01/31 15:48:33;;;;;;;;;;;6.30;99.90;;;;;;6119889;23;20270;-84
2022/01/31 15:51:10;;;;;;;;;;;6.20;99.90;;;;;;6115460;23;20023;-91
2022/01/31 15:53:39;;;;;;;;;;;6.20;99.90;;;;;;6115584;23;19921;-84
2022/01/31 15:56:04;;;;;;;;;;;6.00;99.90;;;;;;6118022;23;20004;-81
2022/01/31 15:58:30;;;;;;;;;;;5.90;99.90;;;;;;6120362;23;19928;-84
2022/01/31 16:01:00;;;;;;;;;;;5.80;99.90;;;;;;6095015;23;20276;-85
2022/01/31 16:03:26;;;;;;;;;;;5.80;99.90;;;;;;6145303;23;19921;-84
2022/01/31 16:05:52;;;;;;;;;;;5.70;99.90;;;;;;6119788;23;20260;-86
2022/01/31 16:08:17;;;;;;;;;;;5.70;99.90;;;;;;6120173;23;20258;-86
2022/01/31 16:10:46;;;;;;;;;;;5.60;99.90;;;;;;6097728;23;20206;-90
2022/01/31 16:13:13;;;;;;;;;;;5.60;99.90;;;;;;6098054;23;19921;-85
2022/01/31 16:15:50;;;;;;;;;;;5.50;99.90;;;;;;6124487;23;19923;-84
2022/01/31 16:18:18;;;;;;;;;;;5.50;99.90;;;;;;6122018;23;19943;-85
2022/01/31 16:20:45;;;;;;;;;;;5.40;99.90;;;;;;6124170;23;19920;-84
2022/01/31 16:23:11;;;;;;;;;;;5.40;99.90;;;;;;6122646;23;19916;-84
2022/01/31 16:25:39;;;;;;;;;;;5.40;99.90;;;;;;6096346;23;19956;-83
2022/01/31 16:28:05;;;;;;;;;;;5.30;99.90;;;;;;6121202;23;19925;-83
2022/01/31 16:30:37;;;;;;;;;;;5.30;99.90;;;;;;6098969;23;20243;-86
2022/01/31 16:33:15;;;;;;;;;;;;;;;;;;;;;
2022/01/31 16:35:41;;;;;;;;;;;5.20;99.90;;;;;;6100513;23;19916;-82
2022/01/31 16:38:07;;;;;;;;;;;5.20;99.90;;;;;;6121743;23;19920;-81
2022/01/31 16:40:33;;;;;;;;;;;5.20;99.90;;;;;;6098644;23;19925;-84
2022/01/31 16:42:59;;;;;;;;;;;5.20;99.90;;;;;;6098850;23;19967;-82
2022/01/31 16:45:25;;;;;;;;;;;5.10;99.90;;;;;;6098113;23;19917;-83
2022/01/31 16:47:52;;;;;;;;;;;5.10;99.90;;;;;;6097081;23;19927;-83
2022/01/31 16:50:20;;;;;;;;;;;5.10;99.90;;;;;;6121334;23;19916;-81
2022/01/31 16:52:46;;;;;;;;;;;5.00;99.90;;;;;;6121495;23;19991;-83
2022/01/31 16:55:12;;;;;;;;;;;5.00;99.90;;;;;;6120244;23;20333;-85
2022/01/31 16:57:39;;;;;;;;;;;5.00;99.90;;;;;;6121214;23;19923;-82
2022/01/31 17:00:12;;;;;;;;;;;5.00;99.90;;;;;;6116894;23;19960;-83
2022/01/31 17:02:41;;;;;;;;;;;5.00;99.90;;;;;;6096063;23;20329;-82
2022/01/31 17:05:07;;;;;;;;;;;5.00;99.90;;;;;;6122599;23;19920;-80
2022/01/31 17:07:33;;;;;;;;;;;4.90;99.90;;;;;;6101285;23;20137;-83
2022/01/31 17:09:59;;;;;;;;;;;4.90;99.90;;;;;;6119852;23;20353;-81
2022/01/31 17:12:26;;;;;;;;;;;4.90;99.90;;;;;;6123285;23;20346;-85
2022/01/31 17:14:58;;;;;;;;;;;4.80;99.90;;;;;;6100391;23;19944;-87
2022/01/31 17:17:24;;;;;;;;;;;4.80;99.90;;;;;;6123794;23;19917;-82
2022/01/31 17:19:50;;;;;;;;;;;4.70;99.90;;;;;;6123482;23;19970;-82
2022/01/31 17:22:15;;;;;;;;;;;4.70;99.90;;;;;;6120267;23;19991;-82
2022/01/31 17:24:41;;;;;;;;;;;4.60;99.90;;;;;;6095390;23;20186;-84
2022/01/31 17:27:07;;;;;;;;;;;4.60;99.90;;;;;;6093421;23;20249;-82
2022/01/31 17:29:33;;;;;;;;;;;4.50;99.90;;;;;;6097825;23;19920;-84
2022/01/31 17:32:01;;;;;;;;;;;4.50;99.90;;;;;;6122547;23;20305;-83
2022/01/31 17:34:27;;;;;;;;;;;4.50;99.90;;;;;;6098107;23;19920;-84
2022/01/31 17:36:52;;;;;;;;;;;4.50;99.90;;;;;;6098168;23;20396;-82
2022/01/31 17:39:19;;;;;;;;;;;4.50;99.90;;;;;;6121819;23;19988;-85
2022/01/31 17:41:46;;;;;;;;;;;4.50;99.90;;;;;;6099751;23;19923;-86
2022/01/31 17:44:17;;;;;;;;;;;4.50;99.90;;;;;;6125205;23;19917;-82
2022/01/31 17:46:43;;;;;;;;;;;4.50;99.90;;;;;;6096997;23;20355;-83
2022/01/31 17:49:09;;;;;;;;;;;4.50;99.90;;;;;;6121617;23;19928;-82
2022/01/31 17:51:35;;;;;;;;;;;4.50;99.90;;;;;;6098915;23;20334;-83
2022/01/31 17:54:01;;;;;;;;;;;4.50;99.90;;;;;;6122254;23;19917;-84
2022/01/31 17:56:26;;;;;;;;;;;4.50;99.90;;;;;;6099574;23;20000;-85
2022/01/31 17:58:52;;;;;;;;;;;4.50;99.90;;;;;;6122776;23;19920;-85
2022/01/31 18:01:18;;;;;;;;;;;4.50;99.90;;;;;;6098058;23;19960;-84
2022/01/31 18:03:44;;;;;;;;;;;4.40;99.90;;;;;;6099025;23;19921;-84
2022/01/31 18:06:09;;;;;;;;;;;4.50;99.90;;;;;;6097522;23;19968;-89
2022/01/31 18:08:35;;;;;;;;;;;4.50;99.90;;;;;;6098206;23;20305;-84
2022/01/31 18:11:01;;;;;;;;;;;4.50;99.90;;;;;;6122097;23;19955;-83
2022/01/31 18:13:26;;;;;;;;;;;4.40;99.90;;;;;;6097692;23;20362;-87
2022/01/31 18:15:52;;;;;;;;;;;4.50;99.90;;;;;;6120373;23;19917;-81
2022/01/31 18:18:21;;;;;;;;;;;4.40;99.90;;;;;;6100024;23;19920;-84
2022/01/31 18:20:46;;;;;;;;;;;4.40;99.90;;;;;;6122398;23;19944;-84
2022/01/31 18:23:12;;;;;;;;;;;4.40;99.90;;;;;;6120738;23;20347;-84
2022/01/31 18:25:39;;;;;;;;;;;4.40;99.90;;;;;;6096154;23;20020;-84
2022/01/31 18:28:05;;;;;;;;;;;4.30;99.90;;;;;;6095836;23;19932;-83
2022/01/31 18:30:37;;;;;;;;;;;4.30;99.90;;;;;;6119740;23;20258;-81
2022/01/31 18:33:03;;;;;;;;;;;4.40;99.90;;;;;;6094131;23;19952;-85
2022/01/31 18:35:28;;;;;;;;;;;4.40;99.90;;;;;;6118905;23;19917;-83
2022/01/31 18:37:54;;;;;;;;;;;4.30;99.90;;;;;;6096534;23;19920;-81
2022/01/31 18:40:21;;;;;;;;;;;4.30;99.90;;;;;;6120749;23;19985;-82
2022/01/31 18:42:47;;;;;;;;;;;4.30;99.90;;;;;;6117440;23;20315;-82
2022/01/31 18:45:19;;;;;;;;;;;4.30;99.90;;;;;;6093425;23;19920;-82
2022/01/31 18:47:44;;;;;;;;;;;4.30;99.90;;;;;;6121209;23;19933;-85
2022/01/31 18:50:10;;;;;;;;;;;4.30;99.90;;;;;;6119259;23;20247;-87
2022/01/31 18:52:38;;;;;;;;;;;4.30;99.90;;;;;;6095191;23;19916;-84
2022/01/31 18:55:04;;;;;;;;;;;4.30;99.90;;;;;;6096863;23;19916;-85
2022/01/31 18:57:29;;;;;;;;;;;4.30;99.90;;;;;;6097129;23;20185;-83
2022/01/31 18:59:56;;;;;;;;;;;4.30;99.90;;;;;;6098124;23;19925;-87
2022/01/31 19:02:22;;;;;;;;;;;4.20;99.90;;;;;;6099673;23;19932;-86
2022/01/31 19:04:48;;;;;;;;;;;4.20;99.90;;;;;;6099635;23;19921;-83
2022/01/31 19:07:14;;;;;;;;;;;4.20;99.90;;;;;;6097914;23;20013;-84
2022/01/31 19:09:42;;;;;;;;;;;4.20;99.90;;;;;;6095317;23;19921;-84
2022/01/31 19:12:14;;;;;;;;;;;4.20;99.90;;;;;;6093793;23;19917;-83
2022/01/31 19:17:25;;;;;;;;;;;4.20;99.90;;;;;;6117628;23;19983;-85
2022/01/31 19:19:50;;;;;;;;;;;4.10;99.90;;;;;;6146246;23;19995;-83
2022/01/31 19:22:17;;;;;;;;;;;4.00;99.90;;;;;;6095984;23;20221;-85
2022/01/31 19:24:43;;;;;;;;;;;4.00;99.90;;;;;;6094522;23;19917;-86
2022/01/31 19:27:09;;;;;;;;;;;3.90;99.90;;;;;;6119227;23;19955;-83
2022/01/31 19:29:34;;;;;;;;;;;3.90;99.90;;;;;;6098580;23;20158;-85
2022/01/31 19:32:00;;;;;;;;;;;3.80;99.90;;;;;;6143116;23;19917;-86
2022/01/31 19:34:26;;;;;;;;;;;3.80;99.90;;;;;;6092497;23;20339;-84
2022/01/31 19:36:51;;;;;;;;;;;3.80;99.90;;;;;;6095425;23;19920;-82
2022/01/31 19:44:33;;;;;;;;;;;3.80;99.90;;;;;;6119848;23;19917;-84
2022/01/31 19:47:00;;;;;;;;;;;3.90;99.90;;;;;;6097798;23;20008;-87
2022/01/31 19:50:11;;;;;;;;;;;3.90;99.90;;;;;;6145795;23;19915;-87
2022/01/31 19:52:59;;;;;;;;;;;3.90;99.90;;;;;;6121697;23;19920;-85
2022/01/31 19:55:27;;;;;;;;;;;4.00;99.90;;;;;;6097060;23;20266;-83
2022/01/31 19:57:53;;;;;;;;;;;4.10;99.90;;;;;;6122160;23;19967;-86